sensor_id;sensor_type;location;lat;lon;timestamp;P1;durP1;ratioP1;P2;durP2;ratioP2
74074;SDS011;62428;51.412;5.432;2023-04-25T00:00:56;21.33;;;4.03;;
74074;SDS011;62428;51.412;5.432;2023-04-25T00:03:22;18.53;;;4.73;;
74074;SDS011;62428;51.412;5.432;2023-04-25T00:05:50;17.23;;;3.60;;
74074;SDS011;62428;51.412;5.432;2023-04-25T00:08:16;13.02;;;3.85;;
74074;SDS011;62428;51.412;5.432;2023-04-25T00:10:42;20.97;;;4.07;;
74074;SDS011;62428;51.412;5.432;2023-04-25T00:13:07;17.35;;;4.47;;
74074;SDS011;62428;51.412;5.432;2023-04-25T00:15:33;12.07;;;4.20;;
74074;SDS011;62428;51.412;5.432;2023-04-25T00:17:59;16.25;;;4.78;;
74074;SDS011;62428;51.412;5.432;2023-04-25T00:20:24;12.90;;;3.53;;
74074;SDS011;62428;51.412;5.432;2023-04-25T00:22:50;11.07;;;3.10;;
74074;SDS011;62428;51.412;5.432;2023-04-25T00:25:17;15.63;;;3.28;;
74074;SDS011;62428;51.412;5.432;2023-04-25T00:27:43;13.20;;;3.27;;
74074;SDS011;62428;51.412;5.432;2023-04-25T00:30:08;15.47;;;3.40;;
74074;SDS011;62428;51.412;5.432;2023-04-25T00:32:34;11.43;;;3.03;;
74074;SDS011;62428;51.412;5.432;2023-04-25T00:35:00;12.68;;;2.80;;
74074;SDS011;62428;51.412;5.432;2023-04-25T00:37:25;10.17;;;2.53;;
74074;SDS011;62428;51.412;5.432;2023-04-25T00:39:50;14.07;;;2.87;;
74074;SDS011;62428;51.412;5.432;2023-04-25T00:42:18;11.32;;;2.40;;
74074;SDS011;62428;51.412;5.432;2023-04-25T00:44:44;6.37;;;2.37;;
74074;SDS011;62428;51.412;5.432;2023-04-25T00:47:10;12.48;;;2.58;;
74074;SDS011;62428;51.412;5.432;2023-04-25T00:49:36;10.45;;;2.30;;
74074;SDS011;62428;51.412;5.432;2023-04-25T00:52:01;10.63;;;2.70;;
74074;SDS011;62428;51.412;5.432;2023-04-25T00:54:27;8.90;;;2.33;;
74074;SDS011;62428;51.412;5.432;2023-04-25T00:56:52;12.23;;;3.07;;
74074;SDS011;62428;51.412;5.432;2023-04-25T00:59:18;9.15;;;2.45;;
74074;SDS011;62428;51.412;5.432;2023-04-25T01:01:44;10.97;;;2.80;;
74074;SDS011;62428;51.412;5.432;2023-04-25T01:04:10;12.35;;;2.72;;
74074;SDS011;62428;51.412;5.432;2023-04-25T01:06:36;15.70;;;3.38;;
74074;SDS011;62428;51.412;5.432;2023-04-25T01:09:01;11.20;;;3.05;;
74074;SDS011;62428;51.412;5.432;2023-04-25T01:11:27;13.63;;;2.50;;
74074;SDS011;62428;51.412;5.432;2023-04-25T01:13:53;14.88;;;2.28;;
74074;SDS011;62428;51.412;5.432;2023-04-25T01:16:18;11.77;;;2.40;;
74074;SDS011;62428;51.412;5.432;2023-04-25T01:18:43;11.27;;;2.43;;
74074;SDS011;62428;51.412;5.432;2023-04-25T01:21:11;19.00;;;2.80;;
74074;SDS011;62428;51.412;5.432;2023-04-25T01:23:38;14.80;;;2.80;;
74074;SDS011;62428;51.412;5.432;2023-04-25T01:26:05;12.90;;;2.45;;
74074;SDS011;62428;51.412;5.432;2023-04-25T01:28:33;10.93;;;2.60;;
74074;SDS011;62428;51.412;5.432;2023-04-25T01:30:59;10.85;;;2.85;;
74074;SDS011;62428;51.412;5.432;2023-04-25T01:33:25;10.33;;;2.20;;
74074;SDS011;62428;51.412;5.432;2023-04-25T01:35:50;9.77;;;2.63;;
74074;SDS011;62428;51.412;5.432;2023-04-25T01:38:16;14.75;;;2.97;;
74074;SDS011;62428;51.412;5.432;2023-04-25T01:40:42;8.10;;;2.33;;
74074;SDS011;62428;51.412;5.432;2023-04-25T01:43:10;13.60;;;3.13;;
74074;SDS011;62428;51.412;5.432;2023-04-25T01:45:40;11.30;;;2.95;;
74074;SDS011;62428;51.412;5.432;2023-04-25T01:48:07;10.68;;;2.75;;
74074;SDS011;62428;51.412;5.432;2023-04-25T01:50:33;10.88;;;3.00;;
74074;SDS011;62428;51.412;5.432;2023-04-25T01:52:59;10.67;;;2.90;;
74074;SDS011;62428;51.412;5.432;2023-04-25T01:55:24;12.15;;;2.88;;
74074;SDS011;62428;51.412;5.432;2023-04-25T01:57:50;12.27;;;2.90;;
74074;SDS011;62428;51.412;5.432;2023-04-25T02:00:15;10.30;;;3.23;;
74074;SDS011;62428;51.412;5.432;2023-04-25T02:02:41;15.77;;;3.07;;
74074;SDS011;62428;51.412;5.432;2023-04-25T02:05:06;13.33;;;2.60;;
74074;SDS011;62428;51.412;5.432;2023-04-25T02:07:32;14.27;;;2.75;;
74074;SDS011;62428;51.412;5.432;2023-04-25T02:09:57;17.97;;;2.67;;
74074;SDS011;62428;51.412;5.432;2023-04-25T02:12:23;12.50;;;3.20;;
74074;SDS011;62428;51.412;5.432;2023-04-25T02:14:49;15.20;;;3.53;;
74074;SDS011;62428;51.412;5.432;2023-04-25T02:17:14;13.83;;;3.37;;
74074;SDS011;62428;51.412;5.432;2023-04-25T02:19:40;16.95;;;3.50;;
74074;SDS011;62428;51.412;5.432;2023-04-25T02:22:06;16.00;;;3.23;;
74074;SDS011;62428;51.412;5.432;2023-04-25T02:24:31;12.03;;;3.70;;
74074;SDS011;62428;51.412;5.432;2023-04-25T02:26:58;13.13;;;3.50;;
74074;SDS011;62428;51.412;5.432;2023-04-25T02:29:24;13.25;;;2.95;;
74074;SDS011;62428;51.412;5.432;2023-04-25T02:31:49;14.43;;;2.83;;
74074;SDS011;62428;51.412;5.432;2023-04-25T02:34:15;12.33;;;3.63;;
74074;SDS011;62428;51.412;5.432;2023-04-25T02:36:40;11.33;;;3.30;;
74074;SDS011;62428;51.412;5.432;2023-04-25T02:39:06;16.00;;;3.30;;
74074;SDS011;62428;51.412;5.432;2023-04-25T02:41:31;18.33;;;3.13;;
74074;SDS011;62428;51.412;5.432;2023-04-25T02:43:56;14.37;;;3.40;;
74074;SDS011;62428;51.412;5.432;2023-04-25T02:46:22;16.70;;;4.00;;
74074;SDS011;62428;51.412;5.432;2023-04-25T02:48:47;16.67;;;4.07;;
74074;SDS011;62428;51.412;5.432;2023-04-25T02:51:12;16.30;;;2.97;;
74074;SDS011;62428;51.412;5.432;2023-04-25T02:53:38;16.63;;;3.38;;
74074;SDS011;62428;51.412;5.432;2023-04-25T02:56:04;10.87;;;2.60;;
74074;SDS011;62428;51.412;5.432;2023-04-25T02:58:30;18.45;;;3.00;;
74074;SDS011;62428;51.412;5.432;2023-04-25T03:00:55;17.80;;;2.90;;
74074;SDS011;62428;51.412;5.432;2023-04-25T03:03:20;12.77;;;2.80;;
74074;SDS011;62428;51.412;5.432;2023-04-25T03:05:49;15.73;;;2.88;;
74074;SDS011;62428;51.412;5.432;2023-04-25T03:08:15;10.82;;;2.85;;
74074;SDS011;62428;51.412;5.432;2023-04-25T03:10:41;11.40;;;2.73;;
74074;SDS011;62428;51.412;5.432;2023-04-25T03:13:07;10.85;;;2.85;;
74074;SDS011;62428;51.412;5.432;2023-04-25T03:15:32;15.77;;;2.83;;
74074;SDS011;62428;51.412;5.432;2023-04-25T03:17:57;14.97;;;2.83;;
74074;SDS011;62428;51.412;5.432;2023-04-25T03:20:23;20.20;;;2.93;;
74074;SDS011;62428;51.412;5.432;2023-04-25T03:22:48;12.90;;;2.70;;
74074;SDS011;62428;51.412;5.432;2023-04-25T03:25:13;10.00;;;2.60;;
74074;SDS011;62428;51.412;5.432;2023-04-25T03:27:39;15.98;;;3.42;;
74074;SDS011;62428;51.412;5.432;2023-04-25T03:30:05;13.90;;;2.80;;
74074;SDS011;62428;51.412;5.432;2023-04-25T03:32:31;13.93;;;3.30;;
74074;SDS011;62428;51.412;5.432;2023-04-25T03:34:57;12.33;;;3.10;;
74074;SDS011;62428;51.412;5.432;2023-04-25T03:37:22;19.90;;;3.53;;
74074;SDS011;62428;51.412;5.432;2023-04-25T03:39:47;16.50;;;2.80;;
74074;SDS011;62428;51.412;5.432;2023-04-25T03:42:13;17.13;;;2.97;;
74074;SDS011;62428;51.412;5.432;2023-04-25T03:44:38;11.40;;;2.80;;
74074;SDS011;62428;51.412;5.432;2023-04-25T03:47:03;17.43;;;2.90;;
74074;SDS011;62428;51.412;5.432;2023-04-25T03:49:28;12.98;;;3.05;;
74074;SDS011;62428;51.412;5.432;2023-04-25T03:51:54;16.83;;;3.30;;
74074;SDS011;62428;51.412;5.432;2023-04-25T03:54:19;17.70;;;3.23;;
74074;SDS011;62428;51.412;5.432;2023-04-25T03:56:45;15.90;;;3.03;;
74074;SDS011;62428;51.412;5.432;2023-04-25T03:59:10;20.47;;;3.70;;
74074;SDS011;62428;51.412;5.432;2023-04-25T04:01:35;16.67;;;3.00;;
74074;SDS011;62428;51.412;5.432;2023-04-25T04:04:01;16.20;;;2.92;;
74074;SDS011;62428;51.412;5.432;2023-04-25T04:06:26;16.92;;;3.70;;
74074;SDS011;62428;51.412;5.432;2023-04-25T04:08:51;14.87;;;2.60;;
74074;SDS011;62428;51.412;5.432;2023-04-25T04:11:17;14.87;;;3.50;;
74074;SDS011;62428;51.412;5.432;2023-04-25T04:13:42;18.07;;;4.00;;
74074;SDS011;62428;51.412;5.432;2023-04-25T04:16:07;12.57;;;3.63;;
74074;SDS011;62428;51.412;5.432;2023-04-25T04:18:33;15.27;;;3.93;;
74074;SDS011;62428;51.412;5.432;2023-04-25T04:20:59;18.63;;;4.00;;
74074;SDS011;62428;51.412;5.432;2023-04-25T04:23:24;15.50;;;3.20;;
74074;SDS011;62428;51.412;5.432;2023-04-25T04:25:52;13.55;;;3.42;;
74074;SDS011;62428;51.412;5.432;2023-04-25T04:28:18;15.23;;;3.30;;
74074;SDS011;62428;51.412;5.432;2023-04-25T04:30:43;11.43;;;3.23;;
74074;SDS011;62428;51.412;5.432;2023-04-25T04:33:10;16.45;;;3.80;;
74074;SDS011;62428;51.412;5.432;2023-04-25T04:35:37;16.57;;;3.40;;
74074;SDS011;62428;51.412;5.432;2023-04-25T04:38:02;18.55;;;3.67;;
74074;SDS011;62428;51.412;5.432;2023-04-25T04:40:28;16.00;;;3.73;;
74074;SDS011;62428;51.412;5.432;2023-04-25T04:42:55;21.48;;;3.35;;
74074;SDS011;62428;51.412;5.432;2023-04-25T04:45:22;16.08;;;4.07;;
74074;SDS011;62428;51.412;5.432;2023-04-25T04:47:47;15.30;;;3.70;;
74074;SDS011;62428;51.412;5.432;2023-04-25T04:50:13;14.77;;;3.28;;
74074;SDS011;62428;51.412;5.432;2023-04-25T04:52:39;16.95;;;3.17;;
74074;SDS011;62428;51.412;5.432;2023-04-25T04:55:05;16.27;;;3.53;;
74074;SDS011;62428;51.412;5.432;2023-04-25T04:57:31;15.80;;;3.80;;
74074;SDS011;62428;51.412;5.432;2023-04-25T04:59:58;12.73;;;2.95;;
74074;SDS011;62428;51.412;5.432;2023-04-25T05:02:23;22.10;;;3.50;;
74074;SDS011;62428;51.412;5.432;2023-04-25T05:04:49;15.30;;;3.07;;
74074;SDS011;62428;51.412;5.432;2023-04-25T05:07:15;16.90;;;3.35;;
74074;SDS011;62428;51.412;5.432;2023-04-25T05:09:40;14.53;;;3.07;;
74074;SDS011;62428;51.412;5.432;2023-04-25T05:12:06;19.20;;;3.30;;
74074;SDS011;62428;51.412;5.432;2023-04-25T05:14:32;21.63;;;3.58;;
74074;SDS011;62428;51.412;5.432;2023-04-25T05:16:58;15.53;;;2.80;;
74074;SDS011;62428;51.412;5.432;2023-04-25T05:19:24;13.20;;;3.53;;
74074;SDS011;62428;51.412;5.432;2023-04-25T05:21:49;16.95;;;3.20;;
74074;SDS011;62428;51.412;5.432;2023-04-25T05:24:15;19.00;;;3.23;;
74074;SDS011;62428;51.412;5.432;2023-04-25T05:26:40;12.07;;;3.30;;
74074;SDS011;62428;51.412;5.432;2023-04-25T05:29:06;20.57;;;3.17;;
74074;SDS011;62428;51.412;5.432;2023-04-25T05:31:31;13.80;;;3.20;;
74074;SDS011;62428;51.412;5.432;2023-04-25T05:33:57;10.38;;;3.25;;
74074;SDS011;62428;51.412;5.432;2023-04-25T05:36:22;11.33;;;2.50;;
74074;SDS011;62428;51.412;5.432;2023-04-25T05:38:48;16.67;;;3.53;;
74074;SDS011;62428;51.412;5.432;2023-04-25T05:41:13;16.00;;;3.47;;
74074;SDS011;62428;51.412;5.432;2023-04-25T05:43:39;16.98;;;3.55;;
74074;SDS011;62428;51.412;5.432;2023-04-25T05:46:09;21.02;;;3.63;;
74074;SDS011;62428;51.412;5.432;2023-04-25T05:48:35;16.93;;;3.23;;
74074;SDS011;62428;51.412;5.432;2023-04-25T05:51:00;12.47;;;2.87;;
74074;SDS011;62428;51.412;5.432;2023-04-25T05:53:26;16.63;;;3.70;;
74074;SDS011;62428;51.412;5.432;2023-04-25T05:55:51;15.27;;;3.00;;
74074;SDS011;62428;51.412;5.432;2023-04-25T05:58:16;15.88;;;3.03;;
74074;SDS011;62428;51.412;5.432;2023-04-25T06:00:42;15.97;;;3.40;;
74074;SDS011;62428;51.412;5.432;2023-04-25T06:03:07;14.20;;;2.57;;
74074;SDS011;62428;51.412;5.432;2023-04-25T06:05:34;19.75;;;3.17;;
74074;SDS011;62428;51.412;5.432;2023-04-25T06:08:00;19.37;;;3.53;;
74074;SDS011;62428;51.412;5.432;2023-04-25T06:10:26;26.40;;;2.95;;
74074;SDS011;62428;51.412;5.432;2023-04-25T06:12:51;19.33;;;3.63;;
74074;SDS011;62428;51.412;5.432;2023-04-25T06:15:16;17.77;;;3.00;;
74074;SDS011;62428;51.412;5.432;2023-04-25T06:17:42;11.18;;;2.75;;
74074;SDS011;62428;51.412;5.432;2023-04-25T06:20:08;14.38;;;2.40;;
74074;SDS011;62428;51.412;5.432;2023-04-25T06:22:33;11.13;;;2.50;;
74074;SDS011;62428;51.412;5.432;2023-04-25T06:24:59;18.38;;;3.33;;
74074;SDS011;62428;51.412;5.432;2023-04-25T06:27:25;15.07;;;3.30;;
74074;SDS011;62428;51.412;5.432;2023-04-25T06:29:50;13.43;;;2.55;;
74074;SDS011;62428;51.412;5.432;2023-04-25T06:32:15;12.97;;;3.13;;
74074;SDS011;62428;51.412;5.432;2023-04-25T06:34:43;11.65;;;3.17;;
74074;SDS011;62428;51.412;5.432;2023-04-25T06:37:08;15.90;;;4.03;;
74074;SDS011;62428;51.412;5.432;2023-04-25T06:39:33;14.93;;;3.50;;
74074;SDS011;62428;51.412;5.432;2023-04-25T06:41:59;20.93;;;3.03;;
74074;SDS011;62428;51.412;5.432;2023-04-25T06:44:24;7.87;;;1.97;;
74074;SDS011;62428;51.412;5.432;2023-04-25T06:46:51;10.68;;;1.83;;
74074;SDS011;62428;51.412;5.432;2023-04-25T06:49:16;15.40;;;2.70;;
74074;SDS011;62428;51.412;5.432;2023-04-25T06:51:42;11.40;;;2.45;;
74074;SDS011;62428;51.412;5.432;2023-04-25T06:54:07;15.60;;;3.10;;
74074;SDS011;62428;51.412;5.432;2023-04-25T06:56:32;14.13;;;2.33;;
74074;SDS011;62428;51.412;5.432;2023-04-25T06:58:58;13.67;;;2.43;;
74074;SDS011;62428;51.412;5.432;2023-04-25T07:01:25;11.43;;;1.38;;
74074;SDS011;62428;51.412;5.432;2023-04-25T07:03:50;13.70;;;1.50;;
74074;SDS011;62428;51.412;5.432;2023-04-25T07:06:15;7.07;;;1.43;;
74074;SDS011;62428;51.412;5.432;2023-04-25T07:08:41;11.03;;;1.20;;
74074;SDS011;62428;51.412;5.432;2023-04-25T07:11:06;8.43;;;1.07;;
74074;SDS011;62428;51.412;5.432;2023-04-25T07:13:31;8.60;;;1.20;;
74074;SDS011;62428;51.412;5.432;2023-04-25T07:15:57;8.35;;;0.82;;
74074;SDS011;62428;51.412;5.432;2023-04-25T07:18:22;7.23;;;1.30;;
74074;SDS011;62428;51.412;5.432;2023-04-25T07:20:48;10.30;;;0.90;;
74074;SDS011;62428;51.412;5.432;2023-04-25T07:23:13;7.63;;;1.10;;
74074;SDS011;62428;51.412;5.432;2023-04-25T07:25:39;10.20;;;1.08;;
74074;SDS011;62428;51.412;5.432;2023-04-25T07:28:04;8.00;;;1.40;;
74074;SDS011;62428;51.412;5.432;2023-04-25T07:30:29;9.27;;;0.93;;
74074;SDS011;62428;51.412;5.432;2023-04-25T07:32:55;7.22;;;0.70;;
74074;SDS011;62428;51.412;5.432;2023-04-25T07:35:20;7.40;;;0.90;;
74074;SDS011;62428;51.412;5.432;2023-04-25T07:37:46;7.77;;;0.70;;
74074;SDS011;62428;51.412;5.432;2023-04-25T07:40:11;10.37;;;0.80;;
74074;SDS011;62428;51.412;5.432;2023-04-25T07:42:37;8.57;;;0.80;;
74074;SDS011;62428;51.412;5.432;2023-04-25T07:45:02;7.25;;;1.00;;
74074;SDS011;62428;51.412;5.432;2023-04-25T07:47:28;6.07;;;0.73;;
74074;SDS011;62428;51.412;5.432;2023-04-25T07:49:53;15.27;;;1.23;;
74074;SDS011;62428;51.412;5.432;2023-04-25T07:52:19;5.95;;;0.70;;
74074;SDS011;62428;51.412;5.432;2023-04-25T07:54:44;10.90;;;0.80;;
74074;SDS011;62428;51.412;5.432;2023-04-25T07:57:10;9.07;;;0.87;;
74074;SDS011;62428;51.412;5.432;2023-04-25T07:59:35;4.73;;;0.83;;
74074;SDS011;62428;51.412;5.432;2023-04-25T08:02:01;4.87;;;0.60;;
74074;SDS011;62428;51.412;5.432;2023-04-25T08:04:27;3.10;;;0.65;;
74074;SDS011;62428;51.412;5.432;2023-04-25T08:06:52;4.00;;;0.50;;
74074;SDS011;62428;51.412;5.432;2023-04-25T08:09:21;4.05;;;0.50;;
74074;SDS011;62428;51.412;5.432;2023-04-25T08:11:46;3.97;;;0.57;;
74074;SDS011;62428;51.412;5.432;2023-04-25T08:14:12;5.40;;;0.50;;
74074;SDS011;62428;51.412;5.432;2023-04-25T08:16:37;6.43;;;0.70;;
74074;SDS011;62428;51.412;5.432;2023-04-25T08:19:03;5.57;;;0.70;;
74074;SDS011;62428;51.412;5.432;2023-04-25T08:21:28;7.05;;;0.63;;
74074;SDS011;62428;51.412;5.432;2023-04-25T08:23:54;6.27;;;0.57;;
74074;SDS011;62428;51.412;5.432;2023-04-25T08:26:19;5.63;;;0.70;;
74074;SDS011;62428;51.412;5.432;2023-04-25T08:28:45;8.00;;;0.83;;
74074;SDS011;62428;51.412;5.432;2023-04-25T08:31:11;6.93;;;0.73;;
74074;SDS011;62428;51.412;5.432;2023-04-25T08:33:36;4.47;;;0.63;;
74074;SDS011;62428;51.412;5.432;2023-04-25T08:36:02;7.45;;;0.50;;
74074;SDS011;62428;51.412;5.432;2023-04-25T08:38:29;6.77;;;0.87;;
74074;SDS011;62428;51.412;5.432;2023-04-25T08:40:54;8.30;;;0.80;;
74074;SDS011;62428;51.412;5.432;2023-04-25T08:43:21;7.40;;;0.70;;
74074;SDS011;62428;51.412;5.432;2023-04-25T08:45:48;7.57;;;0.85;;
74074;SDS011;62428;51.412;5.432;2023-04-25T08:48:14;7.43;;;0.80;;
74074;SDS011;62428;51.412;5.432;2023-04-25T08:53:18;6.40;;;0.68;;
74074;SDS011;62428;51.412;5.432;2023-04-25T08:55:47;8.50;;;1.15;;
74074;SDS011;62428;51.412;5.432;2023-04-25T08:58:13;8.35;;;1.33;;
74074;SDS011;62428;51.412;5.432;2023-04-25T09:00:39;5.57;;;0.67;;
74074;SDS011;62428;51.412;5.432;2023-04-25T09:03:05;6.35;;;0.60;;
74074;SDS011;62428;51.412;5.432;2023-04-25T09:05:32;6.00;;;0.60;;
74074;SDS011;62428;51.412;5.432;2023-04-25T09:07:58;8.77;;;0.73;;
74074;SDS011;62428;51.412;5.432;2023-04-25T09:10:25;6.55;;;0.65;;
74074;SDS011;62428;51.412;5.432;2023-04-25T09:13:04;9.40;;;0.90;;
74074;SDS011;62428;51.412;5.432;2023-04-25T09:15:31;9.27;;;0.70;;
74074;SDS011;62428;51.412;5.432;2023-04-25T09:17:58;6.95;;;0.60;;
74074;SDS011;62428;51.412;5.432;2023-04-25T09:20:24;5.72;;;0.70;;
74074;SDS011;62428;51.412;5.432;2023-04-25T09:23:00;7.53;;;0.63;;
74074;SDS011;62428;51.412;5.432;2023-04-25T09:25:27;4.22;;;0.43;;
74074;SDS011;62428;51.412;5.432;2023-04-25T09:27:59;9.35;;;0.80;;
74074;SDS011;62428;51.412;5.432;2023-04-25T09:30:30;14.43;;;1.52;;
74074;SDS011;62428;51.412;5.432;2023-04-25T09:32:57;6.90;;;0.77;;
74074;SDS011;62428;51.412;5.432;2023-04-25T09:35:28;10.32;;;0.60;;
74074;SDS011;62428;51.412;5.432;2023-04-25T09:37:55;8.43;;;0.57;;
74074;SDS011;62428;51.412;5.432;2023-04-25T09:40:20;6.97;;;0.70;;
74074;SDS011;62428;51.412;5.432;2023-04-25T09:42:46;10.48;;;0.70;;
74074;SDS011;62428;51.412;5.432;2023-04-25T09:45:12;6.30;;;0.60;;
74074;SDS011;62428;51.412;5.432;2023-04-25T09:47:40;4.63;;;0.45;;
74074;SDS011;62428;51.412;5.432;2023-04-25T09:50:13;5.67;;;0.50;;
74074;SDS011;62428;51.412;5.432;2023-04-25T09:52:40;6.15;;;0.57;;
74074;SDS011;62428;51.412;5.432;2023-04-25T09:55:05;6.93;;;0.60;;
74074;SDS011;62428;51.412;5.432;2023-04-25T09:57:31;6.93;;;0.70;;
74074;SDS011;62428;51.412;5.432;2023-04-25T09:59:56;5.20;;;0.70;;
74074;SDS011;62428;51.412;5.432;2023-04-25T10:02:25;7.50;;;0.52;;
74074;SDS011;62428;51.412;5.432;2023-04-25T10:04:52;10.50;;;0.93;;
74074;SDS011;62428;51.412;5.432;2023-04-25T10:07:23;9.98;;;0.82;;
74074;SDS011;62428;51.412;5.432;2023-04-25T10:10:00;3.08;;;0.40;;
74074;SDS011;62428;51.412;5.432;2023-04-25T10:12:28;6.35;;;0.55;;
74074;SDS011;62428;51.412;5.432;2023-04-25T10:14:54;4.57;;;0.60;;
74074;SDS011;62428;51.412;5.432;2023-04-25T10:17:20;8.15;;;0.98;;
74074;SDS011;62428;51.412;5.432;2023-04-25T10:19:46;21.50;;;1.65;;
74074;SDS011;62428;51.412;5.432;2023-04-25T10:22:20;4.30;;;0.80;;
74074;SDS011;62428;51.412;5.432;2023-04-25T10:24:55;12.88;;;1.10;;
74074;SDS011;62428;51.412;5.432;2023-04-25T10:27:21;8.73;;;1.23;;
74074;SDS011;62428;51.412;5.432;2023-04-25T10:30:00;5.47;;;0.50;;
74074;SDS011;62428;51.412;5.432;2023-04-25T10:32:30;6.93;;;0.77;;
74074;SDS011;62428;51.412;5.432;2023-04-25T10:34:57;6.22;;;0.80;;
74074;SDS011;62428;51.412;5.432;2023-04-25T10:37:23;31.47;;;2.37;;
74074;SDS011;62428;51.412;5.432;2023-04-25T10:39:49;4.03;;;1.20;;
74074;SDS011;62428;51.412;5.432;2023-04-25T10:42:14;6.00;;;0.50;;
74074;SDS011;62428;51.412;5.432;2023-04-25T10:44:40;4.68;;;0.57;;
74074;SDS011;62428;51.412;5.432;2023-04-25T10:47:06;4.50;;;0.60;;
74074;SDS011;62428;51.412;5.432;2023-04-25T10:49:33;3.10;;;0.60;;
74074;SDS011;62428;51.412;5.432;2023-04-25T10:52:17;7.57;;;0.60;;
74074;SDS011;62428;51.412;5.432;2023-04-25T10:54:52;3.95;;;0.55;;
74074;SDS011;62428;51.412;5.432;2023-04-25T11:00:18;11.48;;;0.93;;
74074;SDS011;62428;51.412;5.432;2023-04-25T11:03:02;3.90;;;0.60;;
74074;SDS011;62428;51.412;5.432;2023-04-25T11:07:58;5.65;;;0.45;;
74074;SDS011;62428;51.412;5.432;2023-04-25T11:10:28;5.68;;;0.73;;
74074;SDS011;62428;51.412;5.432;2023-04-25T11:12:58;8.80;;;0.60;;
74074;SDS011;62428;51.412;5.432;2023-04-25T11:15:24;7.38;;;0.60;;
74074;SDS011;62428;51.412;5.432;2023-04-25T11:17:53;7.77;;;0.60;;
74074;SDS011;62428;51.412;5.432;2023-04-25T11:20:19;6.72;;;0.88;;
74074;SDS011;62428;51.412;5.432;2023-04-25T11:22:45;6.47;;;1.20;;
74074;SDS011;62428;51.412;5.432;2023-04-25T11:25:12;3.38;;;0.63;;
74074;SDS011;62428;51.412;5.432;2023-04-25T11:27:49;5.15;;;1.10;;
74074;SDS011;62428;51.412;5.432;2023-04-25T11:30:16;4.50;;;0.60;;
74074;SDS011;62428;51.412;5.432;2023-04-25T11:32:42;6.40;;;0.63;;
74074;SDS011;62428;51.412;5.432;2023-04-25T11:35:09;4.20;;;0.50;;
74074;SDS011;62428;51.412;5.432;2023-04-25T11:37:35;8.57;;;0.90;;
74074;SDS011;62428;51.412;5.432;2023-04-25T11:40:02;4.93;;;0.60;;
74074;SDS011;62428;51.412;5.432;2023-04-25T11:42:28;4.93;;;0.60;;
74074;SDS011;62428;51.412;5.432;2023-04-25T11:44:53;3.67;;;0.50;;
74074;SDS011;62428;51.412;5.432;2023-04-25T11:47:19;8.00;;;0.40;;
74074;SDS011;62428;51.412;5.432;2023-04-25T11:49:44;8.83;;;0.50;;
74074;SDS011;62428;51.412;5.432;2023-04-25T11:52:10;3.93;;;1.00;;
74074;SDS011;62428;51.412;5.432;2023-04-25T11:54:36;3.33;;;0.37;;
74074;SDS011;62428;51.412;5.432;2023-04-25T11:57:02;3.83;;;0.32;;
74074;SDS011;62428;51.412;5.432;2023-04-25T11:59:28;4.80;;;0.40;;
74074;SDS011;62428;51.412;5.432;2023-04-25T12:01:53;4.50;;;0.67;;
74074;SDS011;62428;51.412;5.432;2023-04-25T12:04:20;7.97;;;0.65;;
74074;SDS011;62428;51.412;5.432;2023-04-25T12:06:47;4.23;;;0.50;;
74074;SDS011;62428;51.412;5.432;2023-04-25T12:09:14;4.10;;;0.40;;
74074;SDS011;62428;51.412;5.432;2023-04-25T12:11:46;3.72;;;0.50;;
74074;SDS011;62428;51.412;5.432;2023-04-25T12:14:20;3.85;;;0.60;;
74074;SDS011;62428;51.412;5.432;2023-04-25T12:16:50;6.03;;;0.50;;
74074;SDS011;62428;51.412;5.432;2023-04-25T12:19:16;7.57;;;0.57;;
74074;SDS011;62428;51.412;5.432;2023-04-25T12:21:43;1.48;;;0.38;;
74074;SDS011;62428;51.412;5.432;2023-04-25T12:24:10;1.90;;;0.28;;
74074;SDS011;62428;51.412;5.432;2023-04-25T12:26:49;3.47;;;0.43;;
74074;SDS011;62428;51.412;5.432;2023-04-25T12:29:16;9.05;;;0.85;;
74074;SDS011;62428;51.412;5.432;2023-04-25T12:31:42;3.73;;;0.33;;
74074;SDS011;62428;51.412;5.432;2023-04-25T12:34:07;3.45;;;0.50;;
74074;SDS011;62428;51.412;5.432;2023-04-25T12:36:33;6.32;;;0.85;;
74074;SDS011;62428;51.412;5.432;2023-04-25T12:38:58;3.60;;;0.50;;
74074;SDS011;62428;51.412;5.432;2023-04-25T12:41:29;8.80;;;0.52;;
74074;SDS011;62428;51.412;5.432;2023-04-25T12:43:54;6.13;;;0.30;;
74074;SDS011;62428;51.412;5.432;2023-04-25T12:46:20;4.72;;;0.40;;
74074;SDS011;62428;51.412;5.432;2023-04-25T12:48:45;5.30;;;0.40;;
74074;SDS011;62428;51.412;5.432;2023-04-25T12:51:11;4.97;;;1.00;;
74074;SDS011;62428;51.412;5.432;2023-04-25T12:53:36;4.27;;;0.60;;
74074;SDS011;62428;51.412;5.432;2023-04-25T12:56:02;8.43;;;0.40;;
74074;SDS011;62428;51.412;5.432;2023-04-25T12:58:28;4.57;;;0.50;;
74074;SDS011;62428;51.412;5.432;2023-04-25T13:00:53;4.83;;;0.83;;
74074;SDS011;62428;51.412;5.432;2023-04-25T13:03:19;4.72;;;0.68;;
74074;SDS011;62428;51.412;5.432;2023-04-25T13:05:44;2.13;;;0.30;;
74074;SDS011;62428;51.412;5.432;2023-04-25T13:08:10;3.78;;;0.40;;
74074;SDS011;62428;51.412;5.432;2023-04-25T13:10:36;2.80;;;0.40;;
74074;SDS011;62428;51.412;5.432;2023-04-25T13:13:03;5.25;;;0.40;;
74074;SDS011;62428;51.412;5.432;2023-04-25T13:15:28;2.47;;;0.30;;
74074;SDS011;62428;51.412;5.432;2023-04-25T13:17:54;2.27;;;0.33;;
74074;SDS011;62428;51.412;5.432;2023-04-25T13:20:19;2.97;;;0.30;;
74074;SDS011;62428;51.412;5.432;2023-04-25T13:22:47;7.10;;;0.43;;
74074;SDS011;62428;51.412;5.432;2023-04-25T13:25:12;7.60;;;0.50;;
74074;SDS011;62428;51.412;5.432;2023-04-25T13:27:38;4.33;;;0.50;;
74074;SDS011;62428;51.412;5.432;2023-04-25T13:30:05;3.85;;;0.30;;
74074;SDS011;62428;51.412;5.432;2023-04-25T13:32:36;4.32;;;0.40;;
74074;SDS011;62428;51.412;5.432;2023-04-25T13:35:06;6.97;;;0.60;;
74074;SDS011;62428;51.412;5.432;2023-04-25T13:37:34;4.40;;;0.50;;
74074;SDS011;62428;51.412;5.432;2023-04-25T13:40:00;2.97;;;0.50;;
74074;SDS011;62428;51.412;5.432;2023-04-25T13:42:29;4.28;;;0.50;;
74074;SDS011;62428;51.412;5.432;2023-04-25T13:44:54;5.10;;;0.50;;
74074;SDS011;62428;51.412;5.432;2023-04-25T13:47:20;4.57;;;0.40;;
74074;SDS011;62428;51.412;5.432;2023-04-25T13:49:45;3.83;;;0.60;;
74074;SDS011;62428;51.412;5.432;2023-04-25T13:52:10;5.57;;;0.60;;
74074;SDS011;62428;51.412;5.432;2023-04-25T13:54:36;5.87;;;0.53;;
74074;SDS011;62428;51.412;5.432;2023-04-25T13:57:01;3.53;;;0.40;;
74074;SDS011;62428;51.412;5.432;2023-04-25T13:59:27;2.80;;;0.50;;
74074;SDS011;62428;51.412;5.432;2023-04-25T14:01:52;6.77;;;0.70;;
74074;SDS011;62428;51.412;5.432;2023-04-25T14:04:18;4.67;;;0.50;;
74074;SDS011;62428;51.412;5.432;2023-04-25T14:06:43;5.87;;;0.80;;
74074;SDS011;62428;51.412;5.432;2023-04-25T14:09:08;4.65;;;0.40;;
74074;SDS011;62428;51.412;5.432;2023-04-25T14:11:38;6.72;;;0.90;;
74074;SDS011;62428;51.412;5.432;2023-04-25T14:14:04;2.90;;;0.50;;
74074;SDS011;62428;51.412;5.432;2023-04-25T14:16:29;3.97;;;0.67;;
74074;SDS011;62428;51.412;5.432;2023-04-25T14:18:57;6.22;;;0.65;;
74074;SDS011;62428;51.412;5.432;2023-04-25T14:21:23;2.35;;;0.40;;
74074;SDS011;62428;51.412;5.432;2023-04-25T14:23:48;5.00;;;0.50;;
74074;SDS011;62428;51.412;5.432;2023-04-25T14:26:13;7.10;;;0.80;;
74074;SDS011;62428;51.412;5.432;2023-04-25T14:28:39;2.58;;;0.60;;
74074;SDS011;62428;51.412;5.432;2023-04-25T14:31:04;3.87;;;0.63;;
74074;SDS011;62428;51.412;5.432;2023-04-25T14:33:30;2.97;;;0.53;;
74074;SDS011;62428;51.412;5.432;2023-04-25T14:35:55;2.63;;;0.60;;
74074;SDS011;62428;51.412;5.432;2023-04-25T14:38:21;5.05;;;0.70;;
74074;SDS011;62428;51.412;5.432;2023-04-25T14:40:48;4.88;;;0.75;;
74074;SDS011;62428;51.412;5.432;2023-04-25T14:43:14;2.60;;;0.40;;